createdAt,value
2023-03-28T00:00:52.030Z,100.00
2023-03-28T00:03:22.495Z,100.00
2023-03-28T00:05:50.373Z,100.00
2023-03-28T00:08:17.837Z,100.00
2023-03-28T00:10:45.400Z,100.00
2023-03-28T00:13:14.175Z,100.00
2023-03-28T00:15:42.408Z,100.00
2023-03-28T00:18:12.665Z,100.00
2023-03-28T00:20:42.864Z,100.00
2023-03-28T00:23:12.230Z,100.00
2023-03-28T00:25:43.716Z,100.00
2023-03-28T00:28:10.542Z,100.00
2023-03-28T00:30:37.356Z,100.00
2023-03-28T00:33:05.510Z,100.00
2023-03-28T00:35:33.200Z,100.00
2023-03-28T00:38:00.019Z,100.00
2023-03-28T00:40:27.489Z,100.00
2023-03-28T00:42:54.533Z,100.00
2023-03-28T00:45:21.597Z,100.00
2023-03-28T00:47:51.699Z,100.00
2023-03-28T00:50:28.968Z,100.00
2023-03-28T00:53:09.527Z,100.00
2023-03-28T00:55:38.638Z,100.00
2023-03-28T00:58:11.130Z,100.00
2023-03-28T01:00:41.378Z,100.00
2023-03-28T01:03:09.216Z,100.00
2023-03-28T01:05:37.186Z,100.00
2023-03-28T01:08:08.909Z,100.00
2023-03-28T01:10:36.028Z,100.00
2023-03-28T01:13:06.102Z,100.00
2023-03-28T01:15:33.827Z,100.00
2023-03-28T01:18:03.776Z,100.00
2023-03-28T01:20:51.597Z,100.00
2023-03-28T01:23:52.977Z,100.00
2023-03-28T01:27:35.502Z,100.00
2023-03-28T01:30:20.815Z,100.00
2023-03-28T01:33:26.004Z,100.00
2023-03-28T01:36:34.817Z,100.00
2023-03-28T01:39:09.485Z,100.00
2023-03-28T01:42:02.645Z,100.00
2023-03-28T01:44:36.430Z,100.00
2023-03-28T01:47:20.087Z,100.00
2023-03-28T01:50:03.404Z,100.00
2023-03-28T01:52:57.814Z,100.00
2023-03-28T01:55:30.329Z,100.00
2023-03-28T01:58:02.223Z,100.00
2023-03-28T02:00:43.682Z,100.00
2023-03-28T02:03:22.154Z,100.00
2023-03-28T02:05:57.228Z,100.00
2023-03-28T02:08:29.421Z,100.00
2023-03-28T02:11:16.931Z,100.00
2023-03-28T02:13:58.242Z,100.00
2023-03-28T02:16:44.366Z,100.00
2023-03-28T02:19:31.377Z,100.00
2023-03-28T02:22:16.768Z,100.00
2023-03-28T02:24:56.495Z,100.00
2023-03-28T02:27:49.237Z,100.00
2023-03-28T02:30:23.597Z,100.00
2023-03-28T02:32:51.688Z,100.00
2023-03-28T02:35:25.070Z,100.00
2023-03-28T02:37:54.895Z,100.00
2023-03-28T02:41:04.523Z,100.00
2023-03-28T02:43:41.730Z,100.00
2023-03-28T02:46:56.130Z,100.00
2023-03-28T02:49:50.360Z,100.00
2023-03-28T02:52:40.333Z,100.00
2023-03-28T02:55:17.966Z,100.00
2023-03-28T02:58:16.177Z,100.00
2023-03-28T03:00:43.193Z,100.00
2023-03-28T03:03:14.156Z,100.00
2023-03-28T03:05:41.477Z,100.00
2023-03-28T03:08:08.339Z,100.00
2023-03-28T03:10:35.756Z,100.00
2023-03-28T03:13:02.685Z,100.00
2023-03-28T03:15:30.842Z,100.00
2023-03-28T03:17:59.019Z,100.00
2023-03-28T03:20:33.738Z,100.00
2023-03-28T03:23:02.222Z,100.00
2023-03-28T03:25:31.427Z,100.00
2023-03-28T03:28:21.466Z,100.00
2023-03-28T03:30:51.890Z,100.00
2023-03-28T03:33:52.163Z,100.00
2023-03-28T03:36:24.132Z,100.00
2023-03-28T03:38:51.029Z,100.00
2023-03-28T03:41:21.425Z,100.00
2023-03-28T03:43:48.974Z,100.00
2023-03-28T03:46:15.875Z,100.00
2023-03-28T03:48:50.062Z,100.00
2023-03-28T03:51:18.173Z,100.00
2023-03-28T03:53:46.737Z,100.00
2023-03-28T03:56:17.971Z,100.00
2023-03-28T03:58:56.570Z,100.00
2023-03-28T04:01:30.003Z,100.00
2023-03-28T04:04:04.210Z,100.00
2023-03-28T04:06:46.996Z,100.00
2023-03-28T04:09:13.970Z,100.00
2023-03-28T04:12:01.887Z,100.00
2023-03-28T04:14:30.143Z,100.00
2023-03-28T04:17:23.382Z,100.00
2023-03-28T04:19:50.491Z,100.00
2023-03-28T04:22:18.772Z,100.00
2023-03-28T04:24:53.527Z,100.00
2023-03-28T04:27:42.009Z,100.00
2023-03-28T04:30:11.143Z,100.00
2023-03-28T04:33:12.954Z,100.00
2023-03-28T04:35:41.594Z,100.00
2023-03-28T04:38:09.856Z,100.00
2023-03-28T04:40:58.026Z,100.00
2023-03-28T04:43:44.882Z,100.00
2023-03-28T04:46:11.824Z,100.00
2023-03-28T04:48:38.874Z,100.00
2023-03-28T04:51:06.682Z,100.00
2023-03-28T04:53:37.874Z,100.00
2023-03-28T04:56:23.481Z,100.00
2023-03-28T04:58:50.513Z,100.00
2023-03-28T05:01:18.093Z,100.00
2023-03-28T05:04:04.788Z,100.00
2023-03-28T05:06:32.132Z,100.00
2023-03-28T05:09:00.999Z,100.00
2023-03-28T05:11:31.181Z,100.00
2023-03-28T05:13:58.024Z,100.00
2023-03-28T05:16:41.983Z,100.00
2023-03-28T05:19:27.105Z,100.00
2023-03-28T05:22:04.951Z,100.00
2023-03-28T05:24:31.831Z,100.00
2023-03-28T05:26:58.573Z,100.00
2023-03-28T05:29:26.129Z,100.00
2023-03-28T05:31:53.419Z,100.00
2023-03-28T05:34:29.794Z,100.00
2023-03-28T05:36:58.075Z,100.00
2023-03-28T05:39:29.278Z,100.00
2023-03-28T05:42:02.609Z,100.00
2023-03-28T05:44:29.681Z,100.00
2023-03-28T05:47:14.554Z,100.00
2023-03-28T05:49:42.887Z,100.00
2023-03-28T05:52:10.723Z,100.00
2023-03-28T05:54:39.024Z,100.00
2023-03-28T05:57:06.511Z,100.00
2023-03-28T05:59:34.267Z,100.00
2023-03-28T06:02:03.385Z,100.00
2023-03-28T06:04:30.366Z,100.00
2023-03-28T06:06:57.205Z,100.00
2023-03-28T06:09:26.234Z,100.00
2023-03-28T06:11:58.504Z,94.76
2023-03-28T06:14:25.974Z,79.19
2023-03-28T06:16:54.860Z,68.47
2023-03-28T06:19:22.177Z,64.22
2023-03-28T06:21:54.819Z,69.18
2023-03-28T06:24:21.938Z,79.48
2023-03-28T06:26:49.107Z,89.41
2023-03-28T06:29:19.862Z,96.38
2023-03-28T06:31:48.787Z,97.20
2023-03-28T06:34:17.526Z,100.00
2023-03-28T06:37:02.049Z,100.00
2023-03-28T06:39:43.358Z,100.00
2023-03-28T06:42:10.894Z,100.00
2023-03-28T06:44:54.285Z,100.00
2023-03-28T06:47:30.339Z,100.00
2023-03-28T06:49:57.747Z,100.00
2023-03-28T06:52:51.054Z,100.00
2023-03-28T06:55:18.038Z,100.00
2023-03-28T06:57:44.781Z,100.00
2023-03-28T07:00:21.727Z,100.00
2023-03-28T07:03:07.099Z,100.00
2023-03-28T07:05:42.205Z,100.00
2023-03-28T07:08:10.747Z,100.00
2023-03-28T07:10:39.163Z,100.00
2023-03-28T07:13:07.299Z,100.00
2023-03-28T07:15:36.179Z,100.00
2023-03-28T07:18:05.926Z,100.00
2023-03-28T07:20:33.155Z,100.00
2023-03-28T07:23:00.153Z,100.00
2023-03-28T07:25:27.475Z,100.00
2023-03-28T07:27:54.428Z,100.00
2023-03-28T07:30:21.389Z,100.00
2023-03-28T07:32:56.691Z,100.00
2023-03-28T07:35:30.924Z,100.00
2023-03-28T07:37:59.228Z,87.66
2023-03-28T07:40:45.751Z,72.15
2023-03-28T07:43:12.679Z,66.15
2023-03-28T07:45:39.578Z,64.66
2023-03-28T07:48:06.918Z,74.10
2023-03-28T07:50:33.955Z,81.04
2023-03-28T07:53:01.273Z,85.84
2023-03-28T07:55:41.820Z,93.96
2023-03-28T07:58:12.787Z,96.68
2023-03-28T08:00:43.152Z,96.75
2023-03-28T08:03:39.702Z,98.26
2023-03-28T08:06:20.081Z,96.44
2023-03-28T08:08:56.036Z,95.25
2023-03-28T08:11:29.409Z,97.03
2023-03-28T08:13:56.449Z,94.04
2023-03-28T08:16:25.048Z,94.03
2023-03-28T08:19:09.109Z,93.12
2023-03-28T08:21:44.767Z,92.81
2023-03-28T08:24:17.347Z,95.93
2023-03-28T08:26:58.401Z,96.46
2023-03-28T08:29:25.756Z,96.65
2023-03-28T08:31:53.020Z,98.67
2023-03-28T08:34:21.183Z,92.92
2023-03-28T08:36:48.993Z,93.44
2023-03-28T08:39:26.002Z,95.23
2023-03-28T08:41:52.765Z,98.25
2023-03-28T08:44:41.770Z,100.00
2023-03-28T08:47:19.169Z,99.07
2023-03-28T08:49:53.363Z,100.00
2023-03-28T08:52:21.519Z,100.00
2023-03-28T08:55:02.462Z,100.00
2023-03-28T08:57:30.569Z,99.20
2023-03-28T09:00:20.452Z,98.06
2023-03-28T09:02:48.698Z,98.51
2023-03-28T09:05:29.196Z,96.14
2023-03-28T09:08:23.801Z,98.46
2023-03-28T09:11:12.688Z,94.56
2023-03-28T09:14:06.999Z,93.72
2023-03-28T09:17:00.746Z,95.53
2023-03-28T09:19:48.807Z,94.84
2023-03-28T09:23:08.157Z,91.82
2023-03-28T09:26:20.240Z,92.42
2023-03-28T09:29:16.305Z,90.33
2023-03-28T09:31:49.657Z,88.48
2023-03-28T09:34:24.119Z,85.23
2023-03-28T09:36:55.477Z,83.19
2023-03-28T09:39:33.420Z,83.39
2023-03-28T09:42:19.659Z,81.66
2023-03-28T09:45:25.136Z,79.40
2023-03-28T09:48:22.386Z,81.66
2023-03-28T09:50:49.652Z,79.23
2023-03-28T09:53:43.417Z,72.50
2023-03-28T09:56:13.668Z,74.57
2023-03-28T09:59:00.126Z,74.35
2023-03-28T10:01:43.192Z,72.83
2023-03-28T10:04:28.483Z,68.35
2023-03-28T10:07:13.458Z,71.38
2023-03-28T10:09:54.002Z,70.34
2023-03-28T10:12:29.120Z,72.18
2023-03-28T10:14:56.099Z,66.25
2023-03-28T10:17:41.184Z,69.77
2023-03-28T10:20:17.993Z,66.69
2023-03-28T10:22:51.859Z,64.22
2023-03-28T10:25:49.254Z,66.67
2023-03-28T10:28:43.891Z,66.47
2023-03-28T10:31:22.900Z,65.77
2023-03-28T10:33:53.188Z,60.17
2023-03-28T10:36:53.050Z,57.13
2023-03-28T10:39:31.177Z,58.09
2023-03-28T10:42:16.668Z,54.80
2023-03-28T10:45:42.681Z,55.67
2023-03-28T10:48:19.009Z,57.27
2023-03-28T10:50:51.813Z,57.45
2023-03-28T10:53:27.573Z,57.13
2023-03-28T10:56:15.791Z,57.92
2023-03-28T10:58:52.211Z,57.02
2023-03-28T11:01:33.257Z,58.80
2023-03-28T11:04:24.399Z,58.64
2023-03-28T11:07:31.195Z,59.97
2023-03-28T11:10:30.938Z,58.81
2023-03-28T11:13:40.989Z,58.92
2023-03-28T11:16:21.676Z,64.20
2023-03-28T11:19:35.787Z,64.56
2023-03-28T11:22:12.829Z,58.76
2023-03-28T11:25:07.389Z,57.42
2023-03-28T11:28:03.666Z,59.40
2023-03-28T11:30:36.217Z,57.00
2023-03-28T11:33:48.142Z,57.72
2023-03-28T11:36:34.098Z,56.64
2023-03-28T11:39:33.780Z,58.65
2023-03-28T11:42:06.989Z,56.19
2023-03-28T11:44:59.056Z,56.12
2023-03-28T11:47:49.658Z,56.70
2023-03-28T11:50:31.115Z,54.72
2023-03-28T11:53:15.470Z,55.43
2023-03-28T11:56:06.790Z,54.05
2023-03-28T11:58:56.636Z,54.70
2023-03-28T12:01:27.183Z,53.94
2023-03-28T12:03:59.090Z,54.56
2023-03-28T12:06:37.359Z,56.41
2023-03-28T12:09:44.399Z,59.18
2023-03-28T12:12:14.555Z,59.07
2023-03-28T12:15:03.132Z,60.09
2023-03-28T12:17:47.840Z,59.51
2023-03-28T12:20:29.189Z,58.89
2023-03-28T12:23:00.204Z,58.95
2023-03-28T12:26:21.682Z,58.57
2023-03-28T12:28:53.858Z,59.35
2023-03-28T12:31:28.961Z,58.74
2023-03-28T12:34:31.942Z,60.82
2023-03-28T12:37:25.063Z,59.92
2023-03-28T12:40:24.923Z,57.68
2023-03-28T12:42:54.778Z,60.89
2023-03-28T12:45:32.627Z,60.41
2023-03-28T12:48:06.589Z,65.02
2023-03-28T12:50:48.540Z,67.37
2023-03-28T12:53:17.265Z,67.43
2023-03-28T12:55:49.228Z,67.19
2023-03-28T12:58:20.842Z,66.83
2023-03-28T13:01:09.228Z,66.32
2023-03-28T13:04:05.468Z,68.93
2023-03-28T13:07:01.132Z,64.84
2023-03-28T13:09:56.146Z,63.88
2023-03-28T13:12:37.763Z,66.80
2023-03-28T13:15:13.678Z,69.98
2023-03-28T13:17:48.706Z,69.78
2023-03-28T13:20:15.651Z,66.12
2023-03-28T13:23:13.038Z,65.77
2023-03-28T13:25:40.176Z,66.20
2023-03-28T13:28:13.059Z,64.73
2023-03-28T13:30:44.512Z,63.94
2023-03-28T13:33:21.180Z,61.56
2023-03-28T13:35:50.638Z,62.66
2023-03-28T13:38:29.656Z,61.85
2023-03-28T13:41:06.471Z,61.20
2023-03-28T13:43:35.761Z,61.23
2023-03-28T13:46:08.515Z,61.90
2023-03-28T13:49:12.983Z,62.93
2023-03-28T13:51:54.944Z,60.97
2023-03-28T13:54:22.884Z,59.43
2023-03-28T13:56:51.256Z,59.77
2023-03-28T13:59:23.467Z,58.83
2023-03-28T14:01:57.541Z,60.29
2023-03-28T14:04:25.960Z,59.75
2023-03-28T14:06:55.249Z,60.08
2023-03-28T14:09:28.347Z,59.05
2023-03-28T14:11:56.926Z,59.15
2023-03-28T14:14:33.888Z,58.70
2023-03-28T14:17:03.731Z,58.20
2023-03-28T14:19:55.165Z,60.25
2023-03-28T14:22:25.315Z,59.92
2023-03-28T14:24:54.076Z,59.46
2023-03-28T14:27:48.197Z,58.87
2023-03-28T14:30:39.373Z,61.70
2023-03-28T14:33:14.355Z,61.40
2023-03-28T14:35:51.111Z,61.20
2023-03-28T14:38:38.409Z,58.82
2023-03-28T14:41:14.463Z,58.36
2023-03-28T14:43:41.342Z,60.24
2023-03-28T14:46:09.993Z,59.81
2023-03-28T14:48:38.232Z,59.98
2023-03-28T14:51:05.983Z,61.23
2023-03-28T14:53:45.468Z,61.90
2023-03-28T14:56:17.223Z,62.54
2023-03-28T14:58:46.149Z,61.07
2023-03-28T15:01:22.796Z,60.34
2023-03-28T15:03:57.511Z,59.39
2023-03-28T15:06:25.252Z,58.55
2023-03-28T15:08:57.508Z,60.17
2023-03-28T15:11:29.859Z,61.68
2023-03-28T15:14:04.242Z,60.96
2023-03-28T15:16:32.901Z,61.24
2023-03-28T15:19:09.373Z,62.36
2023-03-28T15:21:39.926Z,59.98
2023-03-28T15:24:11.465Z,60.77
2023-03-28T15:26:43.329Z,58.54
2023-03-28T15:29:12.408Z,60.71
2023-03-28T15:31:47.795Z,59.76
2023-03-28T15:34:27.927Z,61.20
2023-03-28T15:37:00.632Z,60.27
2023-03-28T15:39:29.944Z,59.00
2023-03-28T15:42:01.849Z,60.22
2023-03-28T15:44:31.699Z,60.11
2023-03-28T15:47:02.153Z,60.43
2023-03-28T15:52:23.980Z,59.46
2023-03-28T15:54:53.592Z,59.16
2023-03-28T15:57:22.553Z,59.55
2023-03-28T15:59:55.270Z,59.48
2023-03-28T16:02:25.835Z,58.25
2023-03-28T16:05:12.276Z,59.71
2023-03-28T16:07:48.647Z,59.24
2023-03-28T16:10:24.622Z,58.48
2023-03-28T16:13:14.873Z,59.20
2023-03-28T16:16:00.746Z,58.79
2023-03-28T16:18:45.147Z,59.91
2023-03-28T16:21:13.018Z,59.76
2023-03-28T16:23:39.890Z,60.79
2023-03-28T16:26:07.224Z,60.71
2023-03-28T16:28:34.990Z,63.00
2023-03-28T16:31:02.372Z,60.05
2023-03-28T16:33:29.779Z,61.93
2023-03-28T16:35:56.897Z,61.74
2023-03-28T16:38:24.063Z,70.47
2023-03-28T16:40:51.794Z,75.03
2023-03-28T16:43:18.773Z,84.74
2023-03-28T16:45:47.308Z,84.88
2023-03-28T16:48:14.429Z,89.08
2023-03-28T16:50:41.316Z,87.67
2023-03-28T16:53:08.271Z,79.61
2023-03-28T16:55:35.304Z,84.61
2023-03-28T16:58:03.057Z,82.67
2023-03-28T17:00:37.467Z,88.09
2023-03-28T17:03:05.461Z,86.53
2023-03-28T17:05:32.457Z,92.29
2023-03-28T17:07:59.796Z,91.34
2023-03-28T17:10:29.008Z,100.00
2023-03-28T17:12:56.835Z,100.00
2023-03-28T17:15:23.702Z,100.00
2023-03-28T17:17:50.580Z,100.00
2023-03-28T17:20:18.029Z,100.00
2023-03-28T17:22:46.460Z,100.00
2023-03-28T17:25:13.471Z,100.00
2023-03-28T17:27:40.565Z,100.00
2023-03-28T17:30:09.757Z,100.00
2023-03-28T17:32:36.846Z,100.00
2023-03-28T17:35:04.114Z,100.00
2023-03-28T17:37:31.739Z,100.00
2023-03-28T17:39:58.616Z,100.00
2023-03-28T17:42:26.038Z,100.00
2023-03-28T17:44:54.761Z,100.00
2023-03-28T17:47:22.670Z,100.00
2023-03-28T17:49:49.738Z,100.00
2023-03-28T17:52:16.855Z,100.00
2023-03-28T17:54:43.885Z,100.00
2023-03-28T17:57:11.036Z,100.00
2023-03-28T17:59:38.280Z,100.00
2023-03-28T18:02:05.365Z,100.00
2023-03-28T18:04:32.257Z,100.00
2023-03-28T18:07:21.337Z,100.00
2023-03-28T18:09:48.694Z,100.00
2023-03-28T18:12:15.957Z,100.00
2023-03-28T18:14:43.412Z,100.00
2023-03-28T18:17:10.453Z,100.00
2023-03-28T18:19:37.716Z,100.00
2023-03-28T18:22:04.856Z,100.00
2023-03-28T18:24:34.322Z,100.00
2023-03-28T18:27:01.782Z,100.00
2023-03-28T18:29:28.668Z,100.00
2023-03-28T18:31:55.533Z,100.00
2023-03-28T18:34:22.489Z,100.00
2023-03-28T18:36:49.356Z,100.00
2023-03-28T18:39:16.674Z,100.00
2023-03-28T18:41:43.826Z,100.00
2023-03-28T18:44:11.669Z,100.00
2023-03-28T18:46:40.040Z,100.00
2023-03-28T18:49:07.283Z,100.00
2023-03-28T18:51:34.158Z,100.00
2023-03-28T18:54:01.685Z,100.00
2023-03-28T18:56:29.063Z,100.00
2023-03-28T18:58:57.455Z,100.00
2023-03-28T19:01:24.261Z,100.00
2023-03-28T19:03:52.436Z,100.00
2023-03-28T19:06:19.461Z,100.00
2023-03-28T19:08:47.640Z,100.00
2023-03-28T19:11:16.857Z,100.00
2023-03-28T19:13:44.119Z,100.00
2023-03-28T19:16:15.875Z,100.00
2023-03-28T19:18:47.008Z,100.00
2023-03-28T19:21:14.264Z,100.00
2023-03-28T19:23:41.281Z,100.00
2023-03-28T19:26:09.784Z,100.00
2023-03-28T19:28:36.732Z,100.00
2023-03-28T19:31:08.734Z,100.00
2023-03-28T19:33:37.374Z,100.00
2023-03-28T19:36:06.208Z,100.00
2023-03-28T19:38:35.153Z,100.00
2023-03-28T19:41:04.156Z,100.00
2023-03-28T19:43:31.579Z,100.00
2023-03-28T19:46:06.932Z,100.00
2023-03-28T19:48:35.072Z,100.00
2023-03-28T19:51:04.975Z,100.00
2023-03-28T19:53:32.485Z,100.00
2023-03-28T19:56:00.229Z,100.00
2023-03-28T19:58:28.439Z,100.00
2023-03-28T20:00:57.143Z,100.00
2023-03-28T20:03:24.192Z,100.00
2023-03-28T20:05:51.314Z,100.00
2023-03-28T20:08:19.124Z,100.00
2023-03-28T20:10:48.251Z,100.00
2023-03-28T20:13:17.696Z,100.00
2023-03-28T20:15:45.923Z,100.00
2023-03-28T20:18:15.101Z,100.00
2023-03-28T20:20:42.798Z,100.00
2023-03-28T20:23:09.997Z,100.00
2023-03-28T20:25:38.236Z,100.00
2023-03-28T20:28:05.382Z,100.00
2023-03-28T20:30:32.348Z,100.00
2023-03-28T20:32:59.507Z,100.00
2023-03-28T20:35:27.415Z,100.00
2023-03-28T20:37:54.615Z,100.00
2023-03-28T20:40:23.369Z,100.00
2023-03-28T20:42:51.121Z,100.00
2023-03-28T20:45:24.607Z,100.00
2023-03-28T20:47:59.268Z,100.00
2023-03-28T20:50:34.019Z,100.00
2023-03-28T20:53:02.440Z,100.00
2023-03-28T20:55:32.383Z,100.00
2023-03-28T20:57:59.498Z,100.00
2023-03-28T21:00:30.286Z,100.00
2023-03-28T21:02:57.434Z,100.00
2023-03-28T21:05:25.345Z,100.00
2023-03-28T21:07:53.106Z,100.00
2023-03-28T21:10:20.865Z,100.00
2023-03-28T21:12:49.070Z,100.00
2023-03-28T21:15:16.294Z,100.00
2023-03-28T21:17:43.223Z,100.00
2023-03-28T21:20:10.926Z,100.00
2023-03-28T21:22:38.655Z,100.00
2023-03-28T21:25:10.763Z,100.00
2023-03-28T21:27:37.828Z,100.00
2023-03-28T21:30:08.353Z,100.00
2023-03-28T21:32:36.191Z,100.00
2023-03-28T21:35:04.349Z,100.00
2023-03-28T21:37:32.026Z,100.00
2023-03-28T21:40:20.687Z,100.00
2023-03-28T21:42:47.617Z,100.00
2023-03-28T21:45:14.892Z,100.00
2023-03-28T21:47:42.763Z,100.00
2023-03-28T21:50:11.961Z,100.00
2023-03-28T21:52:40.786Z,100.00
2023-03-28T21:55:09.630Z,100.00
2023-03-28T21:57:36.988Z,100.00
2023-03-28T22:00:14.974Z,100.00
2023-03-28T22:02:43.058Z,100.00
2023-03-28T22:05:22.001Z,100.00
2023-03-28T22:07:53.742Z,100.00
2023-03-28T22:10:21.476Z,100.00
2023-03-28T22:12:48.333Z,100.00
2023-03-28T22:15:15.384Z,100.00
2023-03-28T22:17:42.986Z,100.00
2023-03-28T22:20:11.805Z,100.00
2023-03-28T22:22:44.953Z,100.00
2023-03-28T22:25:13.063Z,100.00
2023-03-28T22:27:40.567Z,100.00
2023-03-28T22:30:11.107Z,100.00
2023-03-28T22:32:39.317Z,100.00
2023-03-28T22:35:06.835Z,100.00
2023-03-28T22:37:34.368Z,99.30
2023-03-28T22:40:01.159Z,100.00
2023-03-28T22:42:28.864Z,100.00
2023-03-28T22:44:56.169Z,100.00
2023-03-28T22:47:30.793Z,100.00
2023-03-28T22:50:01.984Z,100.00
2023-03-28T22:52:31.798Z,100.00
2023-03-28T22:54:58.818Z,100.00
2023-03-28T22:57:25.872Z,100.00
2023-03-28T22:59:53.773Z,100.00
2023-03-28T23:02:21.743Z,100.00
2023-03-28T23:04:48.667Z,100.00
2023-03-28T23:07:16.449Z,100.00
2023-03-28T23:09:43.729Z,100.00
2023-03-28T23:12:10.803Z,100.00
2023-03-28T23:14:37.676Z,99.71
2023-03-28T23:17:04.745Z,99.27
2023-03-28T23:19:32.296Z,99.11
2023-03-28T23:22:00.183Z,100.00
2023-03-28T23:24:27.982Z,97.02
2023-03-28T23:26:56.138Z,98.36
2023-03-28T23:29:27.496Z,97.30
2023-03-28T23:31:54.438Z,97.65
2023-03-28T23:34:24.193Z,96.46
2023-03-28T23:36:52.348Z,96.85
2023-03-28T23:39:19.177Z,95.67
2023-03-28T23:41:48.866Z,95.90
2023-03-28T23:44:16.196Z,100.00
2023-03-28T23:46:42.986Z,93.87
2023-03-28T23:49:12.369Z,95.61
2023-03-28T23:51:39.132Z,97.85
2023-03-28T23:54:06.114Z,97.83
2023-03-28T23:56:32.913Z,96.16
2023-03-28T23:59:02.635Z,97.09
